createdAt,value
2017-09-05T00:01:19.836Z,90.50
2017-09-05T00:03:47.272Z,90.60
2017-09-05T00:06:14.734Z,90.80
2017-09-05T00:08:45.717Z,91.00
2017-09-05T00:11:28.096Z,91.20
2017-09-05T00:14:00.998Z,91.50
2017-09-05T00:16:45.278Z,91.70
2017-09-05T00:19:17.183Z,91.80
2017-09-05T00:22:01.468Z,92.00
2017-09-05T00:24:28.923Z,91.90
2017-09-05T00:26:56.398Z,92.20
2017-09-05T00:29:23.828Z,92.40
2017-09-05T00:31:51.268Z,92.60
2017-09-05T00:34:18.779Z,92.70
2017-09-05T00:36:46.215Z,92.80
2017-09-05T00:39:13.676Z,92.90
2017-09-05T00:41:41.147Z,93.10
2017-09-05T00:44:08.575Z,93.30
2017-09-05T00:46:36.123Z,93.40
2017-09-05T00:49:03.576Z,93.50
2017-09-05T00:51:31.024Z,93.60
2017-09-05T00:53:58.995Z,93.60
2017-09-05T00:56:26.458Z,93.60
2017-09-05T00:58:53.887Z,93.90
2017-09-05T01:01:21.361Z,94.30
2017-09-05T01:03:48.808Z,94.50
2017-09-05T01:06:16.278Z,94.40
2017-09-05T01:08:43.732Z,94.40
2017-09-05T01:11:11.180Z,94.60
2017-09-05T01:13:38.635Z,94.30
2017-09-05T01:16:06.074Z,94.40
2017-09-05T01:18:33.532Z,94.50
2017-09-05T01:21:00.967Z,94.40
2017-09-05T01:23:28.440Z,94.30
2017-09-05T01:25:55.871Z,94.40
2017-09-05T01:28:23.324Z,94.30
2017-09-05T01:30:50.895Z,94.50
2017-09-05T01:33:18.355Z,94.40
2017-09-05T01:35:45.803Z,94.60
2017-09-05T01:38:13.237Z,94.60
2017-09-05T01:40:40.696Z,94.60
2017-09-05T01:43:08.232Z,94.60
2017-09-05T01:45:35.672Z,94.70
2017-09-05T01:48:03.892Z,94.80
2017-09-05T01:50:31.351Z,94.80
2017-09-05T01:52:59.561Z,95.10
2017-09-05T01:55:27.023Z,95.10
2017-09-05T01:57:54.452Z,95.20
2017-09-05T02:00:21.953Z,95.40
2017-09-05T02:02:49.402Z,95.50
2017-09-05T02:05:16.839Z,95.60
2017-09-05T02:07:44.291Z,95.60
2017-09-05T02:10:11.736Z,95.60
2017-09-05T02:12:39.191Z,95.70
2017-09-05T02:15:06.627Z,95.70
2017-09-05T02:17:34.108Z,95.80
2017-09-05T02:20:01.563Z,95.80
2017-09-05T02:22:28.994Z,95.90
2017-09-05T02:24:56.448Z,96.10
2017-09-05T02:27:23.888Z,96.10
2017-09-05T02:29:51.355Z,96.20
2017-09-05T02:32:18.793Z,96.30
2017-09-05T02:34:46.244Z,96.50
2017-09-05T02:37:13.680Z,96.40
2017-09-05T02:39:41.213Z,96.80
2017-09-05T02:42:08.668Z,97.20
2017-09-05T02:44:36.100Z,97.50
2017-09-05T02:47:03.583Z,97.50
2017-09-05T02:49:31.017Z,98.10
2017-09-05T02:51:58.596Z,97.90
2017-09-05T02:54:26.029Z,98.10
2017-09-05T02:56:53.659Z,98.10
2017-09-05T02:59:21.807Z,98.10
2017-09-05T03:01:49.259Z,98.20
2017-09-05T03:04:16.727Z,98.40
2017-09-05T03:06:44.167Z,98.60
2017-09-05T03:09:11.619Z,98.60
2017-09-05T03:11:39.079Z,99.00
2017-09-05T03:14:06.536Z,99.20
2017-09-05T03:16:33.964Z,99.20
2017-09-05T03:19:01.424Z,99.50
2017-09-05T03:21:28.887Z,99.40
2017-09-05T03:23:56.328Z,99.70
2017-09-05T03:26:23.768Z,99.90
2017-09-05T03:28:52.044Z,99.90
2017-09-05T03:31:19.484Z,99.90
2017-09-05T03:33:46.942Z,99.90
2017-09-05T03:36:14.410Z,99.90
2017-09-05T03:38:41.870Z,99.90
2017-09-05T03:41:09.304Z,99.90
2017-09-05T03:43:36.744Z,99.90
2017-09-05T03:46:04.196Z,99.90
2017-09-05T03:48:31.632Z,99.90
2017-09-05T03:50:59.082Z,99.90
2017-09-05T03:53:26.521Z,99.90
2017-09-05T03:55:53.999Z,99.90
2017-09-05T03:58:21.447Z,99.90
2017-09-05T04:00:48.901Z,99.90
2017-09-05T04:03:16.371Z,99.90
2017-09-05T04:05:43.808Z,99.90
2017-09-05T04:08:11.278Z,99.90
2017-09-05T04:10:38.765Z,99.90
2017-09-05T04:13:06.319Z,99.90
2017-09-05T04:15:33.807Z,99.90
2017-09-05T04:18:01.255Z,99.90
2017-09-05T04:20:28.708Z,99.90
2017-09-05T04:22:56.164Z,99.90
2017-09-05T04:25:23.631Z,99.90
2017-09-05T04:27:51.072Z,99.90
2017-09-05T04:30:18.507Z,99.90
2017-09-05T04:32:45.956Z,99.90
2017-09-05T04:35:14.248Z,99.90
2017-09-05T04:37:41.684Z,99.90
2017-09-05T04:40:09.140Z,99.90
2017-09-05T04:42:36.593Z,99.90
2017-09-05T04:45:04.047Z,99.90
2017-09-05T04:47:31.521Z,99.90
2017-09-05T04:49:58.999Z,99.90
2017-09-05T04:52:26.599Z,99.90
2017-09-05T04:54:54.052Z,99.90
2017-09-05T04:57:21.522Z,99.90
2017-09-05T04:59:48.967Z,99.90
2017-09-05T05:02:17.199Z,99.90
2017-09-05T05:04:44.654Z,99.90
2017-09-05T05:07:12.160Z,99.90
2017-09-05T05:09:39.615Z,99.90
2017-09-05T05:12:07.114Z,99.90
2017-09-05T05:14:34.573Z,99.90
2017-09-05T05:17:02.011Z,99.90
2017-09-05T05:19:29.468Z,99.90
2017-09-05T05:21:56.908Z,99.90
2017-09-05T05:24:24.375Z,99.90
2017-09-05T05:26:51.819Z,99.90
2017-09-05T05:29:19.268Z,99.90
2017-09-05T05:31:46.741Z,99.90
2017-09-05T05:34:14.183Z,99.90
2017-09-05T05:36:41.640Z,99.90
2017-09-05T05:39:09.088Z,99.90
2017-09-05T05:41:37.320Z,99.90
2017-09-05T05:44:04.779Z,99.90
2017-09-05T05:46:32.253Z,99.90
2017-09-05T05:49:00.461Z,99.90
2017-09-05T05:51:27.960Z,99.90
2017-09-05T05:53:55.498Z,99.90
2017-09-05T05:56:22.939Z,99.90
2017-09-05T05:58:50.417Z,99.90
2017-09-05T06:01:17.868Z,99.90
2017-09-05T06:03:45.319Z,99.90
2017-09-05T06:06:12.792Z,99.90
2017-09-05T06:08:40.254Z,99.90
2017-09-05T06:11:07.719Z,99.90
2017-09-05T06:13:35.161Z,99.90
2017-09-05T06:16:02.608Z,99.90
2017-09-05T06:18:30.077Z,99.90
2017-09-05T06:20:57.524Z,99.90
2017-09-05T06:23:25.100Z,99.90
2017-09-05T06:25:52.640Z,99.90
2017-09-05T06:28:20.093Z,99.90
2017-09-05T06:30:47.539Z,99.90
2017-09-05T06:33:14.996Z,99.90
2017-09-05T06:35:42.435Z,99.80
2017-09-05T06:38:09.889Z,99.70
2017-09-05T06:40:37.331Z,99.60
2017-09-05T06:43:04.792Z,99.70
2017-09-05T06:45:32.231Z,99.50
2017-09-05T06:47:59.687Z,99.40
2017-09-05T06:50:27.248Z,99.30
2017-09-05T06:52:54.696Z,99.20
2017-09-05T06:55:22.152Z,99.00
2017-09-05T06:57:49.605Z,99.10
2017-09-05T07:00:17.055Z,99.10
2017-09-05T07:02:44.637Z,98.60
2017-09-05T07:05:12.073Z,98.40
2017-09-05T07:07:39.549Z,97.90
2017-09-05T07:10:06.971Z,97.90
2017-09-05T07:12:34.440Z,97.60
2017-09-05T07:15:01.871Z,97.20
2017-09-05T07:17:29.324Z,96.60
2017-09-05T07:19:56.783Z,96.50
2017-09-05T07:22:24.220Z,95.90
2017-09-05T07:24:51.683Z,95.10
2017-09-05T07:27:19.115Z,94.30
2017-09-05T07:29:46.603Z,94.90
2017-09-05T07:32:14.044Z,95.00
2017-09-05T07:34:41.507Z,94.50
2017-09-05T07:37:08.983Z,94.10
2017-09-05T07:39:36.452Z,93.40
2017-09-05T07:42:03.911Z,93.40
2017-09-05T07:44:31.384Z,93.20
2017-09-05T07:46:58.864Z,92.90
2017-09-05T07:49:26.292Z,92.50
2017-09-05T07:51:55.013Z,92.20
2017-09-05T07:54:22.448Z,92.10
2017-09-05T07:56:49.911Z,92.40
2017-09-05T07:59:17.442Z,92.20
2017-09-05T08:01:44.979Z,91.80
2017-09-05T08:04:12.428Z,91.50
2017-09-05T08:06:39.854Z,91.30
2017-09-05T08:09:07.304Z,92.00
2017-09-05T08:11:34.740Z,91.30
2017-09-05T08:14:02.239Z,91.00
2017-09-05T08:16:29.678Z,90.30
2017-09-05T08:18:57.144Z,90.00
2017-09-05T08:21:24.592Z,89.20
2017-09-05T08:23:52.821Z,89.20
2017-09-05T08:26:20.257Z,89.10
2017-09-05T08:28:47.696Z,88.50
2017-09-05T08:31:15.154Z,89.10
2017-09-05T08:33:42.593Z,88.70
2017-09-05T08:36:10.080Z,87.70
2017-09-05T08:38:37.524Z,87.60
2017-09-05T08:41:04.975Z,89.40
2017-09-05T08:43:32.496Z,90.40
2017-09-05T08:45:59.931Z,90.30
2017-09-05T08:48:27.403Z,90.70
2017-09-05T08:50:54.840Z,90.40
2017-09-05T08:53:22.276Z,91.00
2017-09-05T08:55:49.778Z,90.80
2017-09-05T08:58:17.192Z,90.60
2017-09-05T09:00:44.622Z,90.90
2017-09-05T09:03:12.073Z,90.90
2017-09-05T09:05:39.505Z,90.80
2017-09-05T09:08:06.952Z,91.00
2017-09-05T09:10:34.464Z,90.70
2017-09-05T09:13:01.928Z,90.60
2017-09-05T09:15:29.385Z,90.20
2017-09-05T09:17:57.538Z,89.60
2017-09-05T09:20:24.968Z,88.90
2017-09-05T09:22:52.421Z,89.30
2017-09-05T09:25:19.894Z,87.40
2017-09-05T09:27:47.361Z,86.30
2017-09-05T09:30:14.792Z,85.00
2017-09-05T09:32:42.245Z,85.40
2017-09-05T09:35:09.687Z,85.50
2017-09-05T09:37:37.143Z,84.90
2017-09-05T09:40:04.591Z,82.60
2017-09-05T09:42:32.051Z,75.10
2017-09-05T09:44:59.490Z,67.80
2017-09-05T09:47:26.931Z,62.60
2017-09-05T09:49:54.396Z,63.40
2017-09-05T09:52:21.827Z,60.30
2017-09-05T09:54:49.305Z,58.90
2017-09-05T09:57:16.765Z,57.60
2017-09-05T09:59:44.227Z,56.10
2017-09-05T10:02:11.680Z,57.90
2017-09-05T10:04:39.184Z,59.30
2017-09-05T10:07:06.641Z,57.00
2017-09-05T10:09:34.076Z,56.00
2017-09-05T10:12:06.771Z,56.80
2017-09-05T10:14:34.180Z,57.00
2017-09-05T10:17:01.678Z,56.90
2017-09-05T10:19:29.110Z,57.70
2017-09-05T10:21:56.584Z,60.20
2017-09-05T10:24:24.074Z,59.30
2017-09-05T10:26:51.499Z,59.00
2017-09-05T10:29:18.960Z,58.20
2017-09-05T10:31:46.398Z,56.90
2017-09-05T10:34:13.852Z,55.50
2017-09-05T10:36:41.372Z,56.20
2017-09-05T10:39:08.832Z,55.20
2017-09-05T10:41:36.268Z,55.40
2017-09-05T10:44:03.700Z,55.30
2017-09-05T10:46:31.157Z,55.30
2017-09-05T10:48:58.635Z,56.10
2017-09-05T10:51:26.100Z,56.40
2017-09-05T10:53:53.596Z,55.40
2017-09-05T10:56:21.018Z,55.80
2017-09-05T10:58:48.479Z,55.20
2017-09-05T11:01:15.931Z,54.90
2017-09-05T11:03:43.376Z,55.80
2017-09-05T11:06:10.808Z,57.10
2017-09-05T11:08:38.280Z,57.60
2017-09-05T11:11:05.723Z,58.50
2017-09-05T11:13:33.164Z,59.70
2017-09-05T11:16:00.615Z,61.80
2017-09-05T11:18:28.129Z,61.90
2017-09-05T11:20:55.565Z,62.30
2017-09-05T11:23:23.007Z,61.30
2017-09-05T11:25:50.482Z,61.20
2017-09-05T11:28:17.958Z,59.80
2017-09-05T11:30:45.426Z,61.70
2017-09-05T11:33:12.856Z,59.30
2017-09-05T11:35:40.329Z,57.60
2017-09-05T11:38:07.810Z,57.80
2017-09-05T11:40:35.247Z,58.00
2017-09-05T11:43:02.757Z,58.80
2017-09-05T11:45:30.186Z,58.00
2017-09-05T11:47:57.634Z,56.80
2017-09-05T11:50:25.066Z,55.60
2017-09-05T11:52:53.297Z,56.00
2017-09-05T11:55:20.770Z,56.00
2017-09-05T11:57:48.375Z,57.00
2017-09-05T12:00:15.852Z,56.50
2017-09-05T12:02:43.289Z,56.40
2017-09-05T12:05:10.724Z,56.00
2017-09-05T12:07:38.188Z,54.60
2017-09-05T12:10:05.709Z,54.70
2017-09-05T12:12:33.155Z,54.80
2017-09-05T12:15:00.606Z,55.90
2017-09-05T12:17:28.056Z,55.50
2017-09-05T12:19:56.268Z,54.30
2017-09-05T12:22:23.719Z,54.30
2017-09-05T12:24:51.176Z,53.60
2017-09-05T12:27:18.629Z,54.20
2017-09-05T12:29:46.069Z,55.80
2017-09-05T12:32:13.552Z,57.00
2017-09-05T12:34:41.036Z,56.40
2017-09-05T12:37:08.556Z,56.10
2017-09-05T12:39:36.016Z,55.60
2017-09-05T12:42:03.448Z,56.50
2017-09-05T12:44:31.010Z,55.90
2017-09-05T12:46:58.433Z,54.60
2017-09-05T12:49:26.881Z,54.00
2017-09-05T12:51:54.329Z,55.50
2017-09-05T12:54:21.791Z,55.60
2017-09-05T12:56:49.243Z,55.90
2017-09-05T12:59:16.684Z,56.90
2017-09-05T13:01:44.167Z,56.70
2017-09-05T13:04:11.605Z,56.80
2017-09-05T13:06:39.076Z,55.90
2017-09-05T13:09:06.516Z,55.20
2017-09-05T13:11:33.953Z,54.00
2017-09-05T13:14:01.399Z,52.70
2017-09-05T13:16:28.910Z,52.30
2017-09-05T13:18:56.343Z,51.20
2017-09-05T13:21:23.776Z,53.30
2017-09-05T13:23:51.220Z,56.00
2017-09-05T13:26:18.652Z,55.80
2017-09-05T13:28:46.103Z,55.30
2017-09-05T13:31:13.588Z,55.80
2017-09-05T13:33:41.012Z,56.20
2017-09-05T13:36:08.499Z,55.60
2017-09-05T13:38:35.951Z,55.20
2017-09-05T13:41:03.399Z,54.40
2017-09-05T13:43:30.848Z,52.30
2017-09-05T13:45:58.299Z,52.00
2017-09-05T13:48:25.735Z,51.80
2017-09-05T13:50:53.227Z,53.00
2017-09-05T13:53:20.708Z,53.90
2017-09-05T13:55:48.132Z,54.10
2017-09-05T13:58:15.584Z,54.20
2017-09-05T14:00:43.028Z,54.40
2017-09-05T14:03:10.492Z,55.40
2017-09-05T14:05:37.922Z,56.00
2017-09-05T14:08:05.381Z,56.90
2017-09-05T14:10:32.852Z,58.10
2017-09-05T14:13:00.303Z,58.10
2017-09-05T14:15:27.727Z,57.70
2017-09-05T14:17:55.179Z,58.80
2017-09-05T14:20:22.657Z,58.10
2017-09-05T14:22:50.096Z,58.10
2017-09-05T14:25:17.545Z,56.80
2017-09-05T14:27:45.015Z,56.30
2017-09-05T14:30:12.468Z,56.80
2017-09-05T14:32:39.903Z,57.20
2017-09-05T14:35:07.394Z,57.80
2017-09-05T14:37:35.596Z,57.50
2017-09-05T14:40:03.031Z,57.50
2017-09-05T14:42:30.497Z,57.40
2017-09-05T14:44:58.418Z,58.20
2017-09-05T14:47:25.872Z,57.90
2017-09-05T14:49:53.311Z,58.10
2017-09-05T14:52:20.788Z,58.80
2017-09-05T14:54:48.223Z,59.00
2017-09-05T14:57:15.699Z,59.60
2017-09-05T14:59:43.167Z,60.00
2017-09-05T15:02:10.628Z,61.10
2017-09-05T15:04:38.829Z,61.50
2017-09-05T15:07:06.321Z,61.50
2017-09-05T15:09:33.745Z,62.50
2017-09-05T15:12:01.195Z,62.70
2017-09-05T15:14:28.621Z,62.30
2017-09-05T15:16:56.067Z,62.70
2017-09-05T15:19:23.524Z,63.40
2017-09-05T15:21:50.980Z,64.40
2017-09-05T15:24:18.588Z,64.60
2017-09-05T15:26:46.039Z,64.90
2017-09-05T15:29:13.525Z,65.40
2017-09-05T15:31:40.960Z,66.20
2017-09-05T15:34:08.409Z,66.60
2017-09-05T15:36:35.850Z,67.30
2017-09-05T15:39:03.304Z,67.90
2017-09-05T15:41:30.764Z,68.20
2017-09-05T15:43:59.013Z,69.00
2017-09-05T15:46:26.466Z,69.10
2017-09-05T15:48:54.002Z,69.60
2017-09-05T15:51:22.196Z,70.90
2017-09-05T15:53:49.653Z,70.90
2017-09-05T15:56:17.118Z,71.50
2017-09-05T15:58:45.325Z,72.40
2017-09-05T16:01:12.779Z,72.40
2017-09-05T16:03:40.209Z,73.00
2017-09-05T16:06:07.664Z,73.30
2017-09-05T16:08:35.116Z,73.30
2017-09-05T16:11:02.611Z,73.60
2017-09-05T16:13:30.060Z,73.90
2017-09-05T16:15:57.492Z,74.00
2017-09-05T16:18:24.980Z,74.00
2017-09-05T16:20:52.425Z,74.30
2017-09-05T16:23:19.891Z,74.30
2017-09-05T16:25:47.332Z,74.50
2017-09-05T16:28:14.801Z,74.20
2017-09-05T16:30:42.257Z,74.90
2017-09-05T16:33:09.690Z,74.50
2017-09-05T16:35:37.140Z,74.90
2017-09-05T16:38:05.341Z,75.20
2017-09-05T16:40:32.798Z,75.20
2017-09-05T16:43:00.234Z,75.30
2017-09-05T16:45:27.699Z,75.30
2017-09-05T16:47:55.136Z,75.40
2017-09-05T16:50:22.568Z,75.40
2017-09-05T16:52:50.024Z,75.60
2017-09-05T16:55:17.455Z,75.30
2017-09-05T16:57:45.694Z,75.70
2017-09-05T17:00:13.137Z,75.70
2017-09-05T17:02:40.591Z,76.00
2017-09-05T17:05:08.039Z,76.30
2017-09-05T17:07:35.495Z,76.40
2017-09-05T17:10:02.952Z,76.60
2017-09-05T17:12:30.396Z,77.00
2017-09-05T17:14:57.848Z,77.20
2017-09-05T17:17:25.289Z,77.30
2017-09-05T17:19:52.741Z,77.10
2017-09-05T17:22:20.209Z,77.60
2017-09-05T17:24:47.664Z,77.40
2017-09-05T17:27:15.121Z,77.90
2017-09-05T17:29:42.580Z,77.80
2017-09-05T17:32:10.023Z,78.20
2017-09-05T17:34:37.459Z,78.40
2017-09-05T17:37:04.916Z,78.90
2017-09-05T17:39:32.364Z,78.90
2017-09-05T17:41:59.796Z,79.40
2017-09-05T17:44:27.244Z,79.50
2017-09-05T17:46:54.672Z,79.50
2017-09-05T17:49:22.127Z,80.00
2017-09-05T17:51:49.558Z,80.30
2017-09-05T17:54:17.032Z,80.70
2017-09-05T17:56:44.570Z,80.80
2017-09-05T17:59:12.001Z,80.80
2017-09-05T18:01:39.451Z,81.20
2017-09-05T18:04:06.881Z,82.00
2017-09-05T18:06:34.337Z,81.60
2017-09-05T18:09:01.829Z,81.70
2017-09-05T18:11:29.981Z,81.70
2017-09-05T18:13:57.443Z,81.90
2017-09-05T18:16:24.900Z,82.00
2017-09-05T18:18:52.423Z,82.20
2017-09-05T18:21:19.874Z,82.30
2017-09-05T18:23:47.350Z,82.30
2017-09-05T18:26:14.859Z,82.80
2017-09-05T18:28:42.382Z,82.90
2017-09-05T18:31:09.888Z,83.30
2017-09-05T18:33:37.399Z,83.40
2017-09-05T18:36:04.987Z,83.70
2017-09-05T18:38:32.689Z,84.00
2017-09-05T18:41:00.257Z,84.00
2017-09-05T18:43:27.922Z,84.20
2017-09-05T18:45:55.525Z,84.10
2017-09-05T18:48:23.209Z,83.60
2017-09-05T18:50:50.885Z,83.80
2017-09-05T18:53:18.560Z,84.20
2017-09-05T18:55:46.265Z,84.60
2017-09-05T18:58:13.941Z,84.50
2017-09-05T19:00:41.680Z,84.60
2017-09-05T19:03:09.408Z,84.80
2017-09-05T19:05:37.155Z,84.60
2017-09-05T19:08:04.898Z,85.50
2017-09-05T19:10:32.480Z,84.60
2017-09-05T19:12:59.944Z,84.80
2017-09-05T19:15:27.399Z,84.70
2017-09-05T19:17:54.888Z,84.80
2017-09-05T19:20:22.321Z,84.70
2017-09-05T19:22:49.783Z,84.40
2017-09-05T19:25:17.220Z,85.30
2017-09-05T19:27:44.747Z,84.50
2017-09-05T19:30:12.195Z,84.70
2017-09-05T19:32:39.640Z,84.50
2017-09-05T19:35:07.112Z,84.70
2017-09-05T19:37:34.562Z,84.60
2017-09-05T19:40:02.008Z,85.10
2017-09-05T19:42:29.445Z,84.70
2017-09-05T19:44:56.906Z,84.90
2017-09-05T19:47:24.357Z,86.00
2017-09-05T19:49:51.799Z,85.00
2017-09-05T19:52:19.231Z,84.70
2017-09-05T19:54:46.684Z,84.90
2017-09-05T19:57:14.128Z,85.00
2017-09-05T19:59:41.561Z,84.60
2017-09-05T20:02:09.013Z,84.70
2017-09-05T20:04:36.993Z,84.60
2017-09-05T20:07:04.432Z,84.70
2017-09-05T20:09:31.888Z,84.70
2017-09-05T20:11:59.328Z,84.80
2017-09-05T20:14:26.788Z,84.70
2017-09-05T20:16:54.222Z,84.80
2017-09-05T20:19:21.705Z,84.90
2017-09-05T20:21:49.136Z,84.70
2017-09-05T20:24:16.588Z,84.90
2017-09-05T20:26:44.024Z,85.00
2017-09-05T20:29:11.480Z,85.10
2017-09-05T20:31:38.924Z,85.30
2017-09-05T20:34:06.372Z,85.40
2017-09-05T20:36:33.820Z,85.40
2017-09-05T20:39:01.277Z,85.60
2017-09-05T20:41:28.727Z,85.80
2017-09-05T20:43:56.168Z,86.10
2017-09-05T20:46:23.626Z,86.20
2017-09-05T20:48:51.095Z,86.40
2017-09-05T20:51:18.540Z,86.40
2017-09-05T20:53:45.975Z,86.40
2017-09-05T20:56:13.433Z,86.60
2017-09-05T20:58:40.863Z,87.00
2017-09-05T21:01:08.315Z,87.10
2017-09-05T21:03:35.752Z,87.30
2017-09-05T21:06:03.210Z,87.20
2017-09-05T21:08:30.651Z,88.10
2017-09-05T21:10:58.087Z,87.40
2017-09-05T21:13:25.544Z,87.40
2017-09-05T21:15:52.976Z,87.90
2017-09-05T21:18:20.455Z,88.20
2017-09-05T21:20:47.892Z,88.20
2017-09-05T21:23:15.324Z,88.10
2017-09-05T21:25:43.539Z,88.40
2017-09-05T21:28:10.965Z,88.50
2017-09-05T21:30:38.415Z,88.40
2017-09-05T21:33:05.872Z,88.80
2017-09-05T21:35:33.328Z,89.00
2017-09-05T21:38:00.848Z,90.00
2017-09-05T21:40:28.291Z,89.30
2017-09-05T21:42:55.735Z,89.90
2017-09-05T21:45:23.956Z,90.20
2017-09-05T21:47:51.418Z,90.10
2017-09-05T21:50:18.851Z,90.30
2017-09-05T21:52:46.392Z,90.70
2017-09-05T21:55:13.831Z,90.40
2017-09-05T21:57:41.299Z,90.60
2017-09-05T22:00:08.732Z,90.80
2017-09-05T22:02:36.168Z,90.90
2017-09-05T22:05:03.624Z,90.90
2017-09-05T22:07:31.066Z,91.10
2017-09-05T22:09:59.369Z,91.30
2017-09-05T22:12:26.799Z,91.30
2017-09-05T22:14:59.931Z,91.40
2017-09-05T22:17:27.367Z,91.40
2017-09-05T22:20:00.470Z,91.60
2017-09-05T22:22:33.676Z,91.70
2017-09-05T22:25:06.804Z,91.70
2017-09-05T22:27:40.051Z,91.70
2017-09-05T22:30:07.511Z,91.80
2017-09-05T22:32:34.959Z,91.90
2017-09-05T22:35:02.409Z,91.90
2017-09-05T22:37:29.883Z,91.90
2017-09-05T22:39:57.335Z,91.90
2017-09-05T22:42:24.804Z,92.00
2017-09-05T22:44:52.240Z,92.00
2017-09-05T22:47:19.700Z,92.10
2017-09-05T22:49:47.139Z,92.30
2017-09-05T22:52:14.634Z,92.40
2017-09-05T22:54:42.069Z,92.60
2017-09-05T22:57:09.505Z,92.80
2017-09-05T22:59:36.963Z,92.80
2017-09-05T23:02:04.403Z,93.00
2017-09-05T23:04:31.862Z,93.10
2017-09-05T23:06:59.307Z,93.20
2017-09-05T23:09:26.796Z,93.40
2017-09-05T23:11:54.333Z,93.40
2017-09-05T23:14:21.748Z,93.60
2017-09-05T23:16:49.204Z,93.60
2017-09-05T23:19:16.654Z,93.70
2017-09-05T23:21:44.109Z,93.90
2017-09-05T23:24:11.548Z,94.00
2017-09-05T23:26:39.000Z,94.20
2017-09-05T23:29:06.455Z,94.30
2017-09-05T23:31:33.937Z,94.40
2017-09-05T23:34:01.388Z,94.50
2017-09-05T23:36:28.845Z,94.60
2017-09-05T23:38:56.303Z,94.80
2017-09-05T23:41:23.751Z,94.80
2017-09-05T23:43:51.215Z,95.00
2017-09-05T23:46:18.655Z,95.20
2017-09-05T23:48:46.120Z,95.30
2017-09-05T23:51:13.561Z,95.40
2017-09-05T23:53:41.014Z,95.50
2017-09-05T23:56:08.464Z,95.70
2017-09-05T23:58:36.685Z,95.90
